createdAt,value
2019-04-22T00:04:17.817Z,10.80
2019-04-22T00:09:48.539Z,10.70
2019-04-22T00:14:46.549Z,10.70
2019-04-22T00:19:59.367Z,10.60
2019-04-22T00:25:10.046Z,10.40
2019-04-22T00:35:12.766Z,10.40
2019-04-22T00:40:32.261Z,10.30
2019-04-22T00:45:36.215Z,10.20
2019-04-22T00:56:00.589Z,10.20
2019-04-22T01:01:17.383Z,10.10
2019-04-22T01:16:29.650Z,10.00
2019-04-22T01:26:38.913Z,9.80
2019-04-22T01:31:31.550Z,9.70
2019-04-22T01:36:56.055Z,9.60
2019-04-22T01:42:21.895Z,9.60
2019-04-22T01:47:21.411Z,9.50
2019-04-22T01:57:27.062Z,9.50
2019-04-22T02:02:39.944Z,9.50
2019-04-22T02:07:42.471Z,9.50
2019-04-22T02:12:48.550Z,9.40
2019-04-22T02:18:01.351Z,9.50
2019-04-22T02:44:14.062Z,9.20
2019-04-22T02:54:36.425Z,9.20
2019-04-22T02:59:28.384Z,9.20
2019-04-22T03:04:37.259Z,9.10
2019-04-22T03:14:40.438Z,9.10
2019-04-22T03:45:28.368Z,8.50
2019-04-22T03:55:43.376Z,8.40
2019-04-22T04:10:58.911Z,8.30
2019-04-22T04:16:10.708Z,8.30
2019-04-22T04:26:45.555Z,8.20
2019-04-22T04:36:41.758Z,8.40
2019-04-22T04:47:03.484Z,8.40
2019-04-22T04:57:05.026Z,8.30
2019-04-22T05:02:19.758Z,8.50
2019-04-22T05:07:24.699Z,8.50
2019-04-22T05:17:35.825Z,8.70
2019-04-22T05:32:47.341Z,8.90
2019-04-22T05:37:56.528Z,9.00
2019-04-22T05:43:02.523Z,9.20
2019-04-22T05:48:02.824Z,9.40
2019-04-22T05:53:06.834Z,9.60
2019-04-22T05:58:24.278Z,9.80
2019-04-22T06:03:31.794Z,10.00
2019-04-22T06:08:30.591Z,10.20
2019-04-22T06:13:33.167Z,10.40
2019-04-22T06:19:00.909Z,10.60
2019-04-22T06:24:06.338Z,10.80
2019-04-22T06:29:13.776Z,11.00
2019-04-22T06:34:17.665Z,11.30
2019-04-22T06:39:24.219Z,11.60
2019-04-22T06:49:35.907Z,12.20
2019-04-22T06:54:45.481Z,12.50
2019-04-22T06:59:53.685Z,12.80
2019-04-22T07:04:56.388Z,13.20
2019-04-22T07:10:07.960Z,13.50
2019-04-22T07:15:16.581Z,13.90
2019-04-22T07:20:20.479Z,14.10
2019-04-22T07:25:15.816Z,14.40
2019-04-22T07:30:26.419Z,14.70
2019-04-22T07:35:36.205Z,14.90
2019-04-22T07:40:45.616Z,15.20
2019-04-22T07:46:05.305Z,15.50
2019-04-22T07:51:05.535Z,15.80
2019-04-22T07:56:03.552Z,16.10
2019-04-22T08:01:12.459Z,16.40
2019-04-22T08:06:16.772Z,16.70
2019-04-22T08:11:37.650Z,17.00
2019-04-22T08:16:23.636Z,17.20
2019-04-22T08:21:30.007Z,17.60
2019-04-22T08:26:42.041Z,17.90
2019-04-22T08:31:48.677Z,18.20
2019-04-22T08:37:26.198Z,18.40
2019-04-22T08:41:57.218Z,18.60
2019-04-22T08:47:19.173Z,18.90
2019-04-22T08:52:17.545Z,19.20
2019-04-22T08:57:25.961Z,19.50
2019-04-22T09:07:36.808Z,19.90
2019-04-22T09:12:51.744Z,20.00
2019-04-22T09:28:01.913Z,20.70
2019-04-22T09:33:14.484Z,20.80
2019-04-22T09:38:25.713Z,21.00
2019-04-22T09:43:27.853Z,21.20
2019-04-22T09:48:30.040Z,21.40
2019-04-22T09:53:41.347Z,21.60
2019-04-22T09:58:44.602Z,21.70
2019-04-22T10:03:56.736Z,21.70
2019-04-22T10:09:13.149Z,21.90
2019-04-22T10:19:12.398Z,22.00
2019-04-22T10:24:13.833Z,22.10
2019-04-22T10:29:41.605Z,22.20
2019-04-22T10:34:14.155Z,22.50
2019-04-22T10:39:10.775Z,22.50
2019-04-22T10:44:17.039Z,22.80
2019-04-22T10:49:22.505Z,23.00
2019-04-22T10:54:29.405Z,23.10
2019-04-22T10:59:34.419Z,23.10
2019-04-22T11:04:40.540Z,23.50
2019-04-22T11:09:51.788Z,23.80
2019-04-22T11:14:55.780Z,23.90
2019-04-22T11:19:59.543Z,24.40
2019-04-22T11:25:05.664Z,24.80
2019-04-22T11:30:13.389Z,25.20
2019-04-22T11:35:19.525Z,25.70
2019-04-22T11:40:37.668Z,26.10
2019-04-22T11:45:33.255Z,26.00
2019-04-22T11:50:42.115Z,24.50
2019-04-22T11:55:48.989Z,23.70
2019-04-22T12:00:55.358Z,23.50
2019-04-22T12:06:02.126Z,23.40
2019-04-22T12:11:09.811Z,23.40
2019-04-22T12:16:14.798Z,23.60
2019-04-22T12:21:21.312Z,24.20
2019-04-22T12:26:28.589Z,26.70
2019-04-22T12:31:35.987Z,28.10
2019-04-22T12:36:42.599Z,28.70
2019-04-22T12:41:49.846Z,28.90
2019-04-22T12:46:56.915Z,29.50
2019-04-22T12:52:03.127Z,29.50
2019-04-22T12:57:08.553Z,29.60
2019-04-22T13:02:15.388Z,30.00
2019-04-22T13:07:21.544Z,29.90
2019-04-22T13:12:26.986Z,29.90
2019-04-22T13:17:32.971Z,30.00
2019-04-22T13:22:38.859Z,30.20
2019-04-22T13:27:44.895Z,30.50
2019-04-22T13:32:49.963Z,30.50
2019-04-22T13:37:55.221Z,29.90
2019-04-22T13:43:00.774Z,29.90
2019-04-22T13:48:21.980Z,29.30
2019-04-22T13:58:38.511Z,29.80
2019-04-22T14:03:45.026Z,30.40
2019-04-22T14:08:51.469Z,30.80
2019-04-22T14:13:56.862Z,30.90
2019-04-22T14:19:02.099Z,30.60
2019-04-22T14:24:10.591Z,30.60
2019-04-22T14:29:15.485Z,30.60
2019-04-22T14:34:20.954Z,31.00
2019-04-22T14:39:26.235Z,31.90
2019-04-22T14:50:01.055Z,31.40
2019-04-22T14:54:57.776Z,32.10
2019-04-22T14:59:53.772Z,32.00
2019-04-22T15:05:00.454Z,32.00
2019-04-22T15:10:06.523Z,31.90
2019-04-22T15:15:27.211Z,31.60
2019-04-22T15:21:04.799Z,31.90
2019-04-22T15:26:10.601Z,32.60
2019-04-22T15:31:17.363Z,31.90
2019-04-22T15:36:24.108Z,31.80
2019-04-22T15:41:30.560Z,31.80
2019-04-22T15:46:37.083Z,31.90
2019-04-22T15:51:42.887Z,31.80
2019-04-22T15:56:48.866Z,30.40
2019-04-22T16:01:58.208Z,27.90
2019-04-22T16:07:03.315Z,26.40
2019-04-22T16:12:16.171Z,25.30
2019-04-22T16:17:16.748Z,24.40
2019-04-22T16:22:24.992Z,24.10
2019-04-22T16:27:30.201Z,24.30
2019-04-22T16:32:36.930Z,23.70
2019-04-22T16:37:42.970Z,23.10
2019-04-22T16:42:56.274Z,22.70
2019-04-22T16:47:55.600Z,22.60
2019-04-22T16:53:02.068Z,22.30
2019-04-22T16:58:08.537Z,22.10
2019-04-22T17:03:40.601Z,22.00
2019-04-22T17:08:46.734Z,22.20
2019-04-22T17:13:53.063Z,21.90
2019-04-22T17:18:58.564Z,21.90
2019-04-22T17:24:03.942Z,22.50
2019-04-22T17:29:10.375Z,23.10
2019-04-22T17:34:15.769Z,23.60
2019-04-22T17:39:33.972Z,25.10
2019-04-22T17:44:57.144Z,25.30
2019-04-22T17:50:05.031Z,24.60
2019-04-22T17:55:04.523Z,24.10
2019-04-22T18:00:11.443Z,23.50
2019-04-22T18:05:05.514Z,23.00
2019-04-22T18:10:32.536Z,22.40
2019-04-22T18:15:38.477Z,21.50
2019-04-22T18:20:39.084Z,20.30
2019-04-22T18:25:52.433Z,19.30
2019-04-22T18:30:52.931Z,18.50
2019-04-22T18:36:02.280Z,17.80
2019-04-22T18:41:08.078Z,17.40
2019-04-22T18:46:14.507Z,17.10
2019-04-22T18:51:29.242Z,16.80
2019-04-22T18:56:42.262Z,16.60
2019-04-22T19:01:30.160Z,16.50
2019-04-22T19:06:56.397Z,16.40
2019-04-22T19:12:17.989Z,16.30
2019-04-22T19:17:18.962Z,16.20
2019-04-22T19:22:16.270Z,16.10
2019-04-22T19:27:26.848Z,16.00
2019-04-22T19:32:31.097Z,15.90
2019-04-22T19:37:32.658Z,15.80
2019-04-22T19:42:52.617Z,15.70
2019-04-22T19:47:58.199Z,15.60
2019-04-22T19:53:01.638Z,15.50
2019-04-22T19:58:05.561Z,15.40
2019-04-22T20:03:50.417Z,15.30
2019-04-22T20:08:34.269Z,15.30
2019-04-22T20:13:42.772Z,15.20
2019-04-22T20:18:52.297Z,15.20
2019-04-22T20:23:45.429Z,15.00
2019-04-22T20:29:04.730Z,14.90
2019-04-22T20:34:14.436Z,14.60
2019-04-22T20:39:11.231Z,14.40
2019-04-22T20:44:32.306Z,14.10
2019-04-22T20:49:30.865Z,13.80
2019-04-22T20:54:37.371Z,13.70
2019-04-22T20:59:42.516Z,13.70
2019-04-22T21:04:41.574Z,13.60
2019-04-22T21:09:59.496Z,13.60
2019-04-22T21:15:10.607Z,13.70
2019-04-22T21:20:20.132Z,13.60
2019-04-22T21:25:12.465Z,13.70
2019-04-22T21:30:26.568Z,13.60
2019-04-22T21:35:53.718Z,13.60
2019-04-22T21:40:39.779Z,13.50
2019-04-22T21:45:50.452Z,13.40
2019-04-22T21:51:02.504Z,13.30
2019-04-22T21:56:23.968Z,13.30
2019-04-22T22:01:32.330Z,13.30
2019-04-22T22:06:15.154Z,13.30
2019-04-22T22:11:30.314Z,13.20
2019-04-22T22:16:32.159Z,13.10
2019-04-22T22:21:51.141Z,13.20
2019-04-22T22:27:12.737Z,13.30
2019-04-22T22:32:05.068Z,13.30
2019-04-22T22:37:02.045Z,13.20
2019-04-22T22:41:57.608Z,13.00
2019-04-22T22:47:18.178Z,12.90
2019-04-22T22:57:40.103Z,12.50
2019-04-22T23:02:48.369Z,12.40
2019-04-22T23:07:54.098Z,12.20
2019-04-22T23:13:00.416Z,12.10
2019-04-22T23:17:43.612Z,12.00
2019-04-22T23:23:16.609Z,11.90
2019-04-22T23:28:28.198Z,11.90
2019-04-22T23:33:42.474Z,11.90
2019-04-22T23:38:53.713Z,11.90
2019-04-22T23:44:01.012Z,11.90
2019-04-22T23:48:58.009Z,11.80
2019-04-22T23:54:18.677Z,11.70
2019-04-22T23:59:38.228Z,11.50
